Terminal Aerodrome Forecast
Issued by NWS

Home | Current Version | Previous Version | Text Only | Print | Product List | Glossary On
Versions: 1 2 3 4 5 6 7 8 9 10 11 12 13
000
FTUS45 KABQ 221100
TAFFMN
TAF
KFMN 221135Z 2212/2312 09005KT P6SM VCSH BKN060 OVC080
     FM221600 21005KT P6SM VCSH SCT025 OVC070
     FM222000 27010G20KT P6SM SCT080
     FM230000 36005KT P6SM SKC=

USA.gov is the U.S. government's official web portal to all federal, state and local government web resources and services.